Time;durP1;ratioP1;P1;durP2;ratioP2;P2;SDS_P1;SDS_P2;PMS_P1;PMS_P2;Temp;Humidity;BMP_temperature;BMP_pressure;BME280_temperature;BME280_humidity;BME280_pressure;Samples;Min_cycle;Max_cycle;Signal;HPM_P1;HPM_P2
2022/05/25 06:21:01;;;;;;;;;;;16.20;91.00;;;;;;4950154;28;20106;-77
2022/05/25 06:23:27;;;;;;;;;;;16.10;89.40;;;;;;4973023;28;19914;-77
2022/05/25 06:25:54;;;;;;;;;;;16.20;89.20;;;;;;4973931;28;20420;-77
2022/05/25 06:28:20;;;;;;;;;;;16.20;89.50;;;;;;4954505;28;20008;-77
2022/05/25 06:30:47;;;;;;;;;;;16.20;89.80;;;;;;4962172;28;20361;-77
2022/05/25 06:33:14;;;;;;;;;;;16.20;89.10;;;;;;4972625;28;19913;-77
2022/05/25 06:35:40;;;;;;;;;;;16.20;89.30;;;;;;4974105;28;20023;-77
2022/05/25 06:38:07;;;;;;;;;;;16.10;89.60;;;;;;4973784;28;19985;-77
2022/05/25 06:40:34;;;;;;;;;;;16.10;89.40;;;;;;4965538;28;19976;-77
2022/05/25 06:43:00;;;;;;;;;;;16.10;90.10;;;;;;4954421;29;19911;-77
2022/05/25 06:45:27;;;;;;;;;;;16.10;90.70;;;;;;4962409;28;20293;-77
2022/05/25 06:47:53;;;;;;;;;;;16.20;90.90;;;;;;4965141;28;19929;-77
2022/05/25 06:50:20;;;;;;;;;;;16.10;90.90;;;;;;4969391;28;20369;-76
2022/05/25 06:52:46;;;;;;;;;;;16.10;91.20;;;;;;4954542;29;19910;-70
2022/05/25 06:55:13;;;;;;;;;;;16.10;91.80;;;;;;4954213;28;19907;-74
2022/05/25 06:57:40;;;;;;;;;;;16.00;91.60;;;;;;4955389;28;19918;-74
2022/05/25 07:00:07;;;;;;;;;;;16.10;92.10;;;;;;4967740;28;19952;-74
2022/05/25 07:02:33;;;;;;;;;;;16.00;92.40;;;;;;4973746;28;20353;-75
2022/05/25 07:05:00;;;;;;;;;;;16.00;92.50;;;;;;4972587;28;20379;-76
2022/05/25 07:07:27;;;;;;;;;;;16.00;92.70;;;;;;4973502;28;19913;-75
2022/05/25 07:09:53;;;;;;;;;;;16.00;92.70;;;;;;4961036;28;19933;-75
2022/05/25 07:12:20;;;;;;;;;;;15.90;92.80;;;;;;4954429;29;19907;-75
2022/05/25 07:14:46;;;;;;;;;;;15.90;93.00;;;;;;4954021;28;20432;-74
2022/05/25 07:17:13;;;;;;;;;;;15.90;93.10;;;;;;4952895;28;20269;-74
2022/05/25 07:19:39;;;;;;;;;;;15.90;93.20;;;;;;4936493;29;20337;-75
2022/05/25 07:22:09;;;;;;;;;;;15.90;93.30;;;;;;4953883;29;20001;-72
2022/05/25 07:24:36;;;;;;;;;;;15.90;93.50;;;;;;4953774;28;19908;-74
2022/05/25 07:27:02;;;;;;;;;;;16.00;93.50;;;;;;4952358;28;19907;-71
2022/05/25 07:29:29;;;;;;;;;;;16.00;93.60;;;;;;4958411;28;20005;-67
2022/05/25 07:32:03;;;;;;;;;;;15.90;93.60;;;;;;4970214;28;19906;-69
2022/05/25 07:34:34;;;;;;;;;;;15.90;93.70;;;;;;4954038;28;19910;-69
2022/05/25 07:37:05;;;;;;;;;;;15.80;93.70;;;;;;4951345;29;19910;-67
2022/05/25 07:39:35;;;;;;;;;;;15.80;93.90;;;;;;4956883;28;19914;-67
2022/05/25 07:42:02;;;;;;;;;;;15.80;94.10;;;;;;4968609;28;19922;-67
2022/05/25 07:44:31;;;;;;;;;;;15.70;94.20;;;;;;4970394;28;19929;-69
2022/05/25 07:46:57;;;;;;;;;;;15.70;94.10;;;;;;4970246;28;19910;-68
2022/05/25 07:49:24;;;;;;;;;;;15.70;94.30;;;;;;4960725;28;20281;-68
2022/05/25 07:51:51;;;;;;;;;;;15.70;94.30;;;;;;4950408;29;20372;-68
2022/05/25 07:54:18;;;;;;;;;;;15.70;94.50;;;;;;4965410;28;19911;-68
2022/05/25 07:56:44;;;;;;;;;;;15.70;94.60;;;;;;4950996;29;19916;-69
2022/05/25 07:59:12;;;;;;;;;;;15.70;94.60;;;;;;4952175;28;19952;-68
2022/05/25 08:07:09;;;;;;;;;;;15.60;94.60;;;;;;4950734;29;20001;-69
2022/05/25 08:09:36;;;;;;;;;;;15.70;94.70;;;;;;4960640;28;20284;-68
2022/05/25 08:12:04;;;;;;;;;;;15.60;94.70;;;;;;4969039;28;19917;-67
2022/05/25 08:14:31;;;;;;;;;;;15.60;94.80;;;;;;4969155;28;19936;-68
2022/05/25 08:16:57;;;;;;;;;;;15.60;94.80;;;;;;4968782;28;19921;-68
2022/05/25 08:19:24;;;;;;;;;;;15.60;94.70;;;;;;4961369;28;19965;-68
2022/05/25 08:21:52;;;;;;;;;;;15.60;94.50;;;;;;4953634;28;19921;-68
2022/05/25 08:24:18;;;;;;;;;;;15.60;94.60;;;;;;4965406;28;19914;-69
2022/05/25 08:26:45;;;;;;;;;;;15.60;94.40;;;;;;4972343;28;19957;-69
2022/05/25 08:29:12;;;;;;;;;;;15.60;94.50;;;;;;4966648;28;19946;-69
2022/05/25 08:31:39;;;;;;;;;;;15.50;94.20;;;;;;4969967;28;20289;-69
2022/05/25 08:34:05;;;;;;;;;;;15.50;94.20;;;;;;4973657;28;20449;-69
2022/05/25 08:36:32;;;;;;;;;;;15.50;94.50;;;;;;4973480;28;19966;-69
2022/05/25 08:38:59;;;;;;;;;;;15.40;94.40;;;;;;4964411;28;19922;-68
2022/05/25 08:41:27;;;;;;;;;;;15.40;94.30;;;;;;4954745;28;19940;-70
2022/05/25 08:43:54;;;;;;;;;;;15.40;94.30;;;;;;4969072;28;19957;-68
2022/05/25 08:46:22;;;;;;;;;;;15.40;94.50;;;;;;4968641;28;19910;-69
2022/05/25 08:48:48;;;;;;;;;;;15.40;94.30;;;;;;4954923;28;19979;-69
2022/05/25 08:51:19;;;;;;;;;;;15.40;94.50;;;;;;4946889;29;20024;-70
2022/05/25 08:53:46;;;;;;;;;;;15.40;94.40;;;;;;4968450;28;19914;-69
2022/05/25 08:56:16;;;;;;;;;;;15.40;94.50;;;;;;4968225;28;19911;-69
2022/05/25 08:59:09;;;;;;;;;;;15.40;94.30;;;;;;4963025;28;19925;-69
2022/05/25 09:01:43;;;;;;;;;;;15.40;94.30;;;;;;4969918;28;19929;-69
2022/05/25 09:04:13;;;;;;;;;;;15.40;94.30;;;;;;4971218;28;20032;-69
2022/05/25 09:06:47;;;;;;;;;;;15.30;94.20;;;;;;4971873;28;20361;-69
2022/05/25 09:09:18;;;;;;;;;;;15.30;94.00;;;;;;4957510;28;20326;-69
2022/05/25 09:11:49;;;;;;;;;;;15.30;94.10;;;;;;4964515;28;19965;-68
2022/05/25 10:14:43;;;;;;;;;;;15.10;94.50;;;;;;4948871;28;19925;-72
2022/05/25 10:17:10;;;;;;;;;;;15.00;94.40;;;;;;4964783;28;19969;-69
2022/05/25 10:19:50;;;;;;;;;;;15.00;94.50;;;;;;4962712;28;19910;-69
2022/05/25 10:22:34;;;;;;;;;;;15.00;94.50;;;;;;4960155;28;19922;-69
2022/05/25 10:25:03;;;;;;;;;;;15.00;94.60;;;;;;4941429;28;20018;-70
2022/05/25 10:27:40;;;;;;;;;;;15.00;94.60;;;;;;4936007;29;19974;-71
2022/05/25 10:38:42;;;;;;;;;;;14.90;94.40;;;;;;4943987;28;19914;-70
2022/05/25 10:44:08;;;;;;;;;;;14.80;94.40;;;;;;4939139;28;19925;-67
2022/05/25 10:46:35;;;;;;;;;;;14.90;94.50;;;;;;4934900;29;19966;-68
2022/05/25 10:49:22;;;;;;;;;;;14.90;94.50;;;;;;4933299;29;19907;-68
2022/05/25 10:51:50;;;;;;;;;;;14.90;94.60;;;;;;4938976;28;19917;-69
2022/05/25 10:57:25;;;;;;;;;;;14.80;94.50;;;;;;4942012;28;19997;-68
2022/05/25 10:59:58;;;;;;;;;;;14.70;94.60;;;;;;4931964;29;19915;-68
2022/05/25 11:02:25;;;;;;;;;;;14.70;94.70;;;;;;4952547;28;19948;-69
2022/05/25 11:04:58;;;;;;;;;;;14.70;94.80;;;;;;4950608;28;20376;-68
2022/05/25 11:07:34;;;;;;;;;;;14.70;94.90;;;;;;4947980;28;19914;-68
2022/05/25 11:10:12;;;;;;;;;;;14.70;94.90;;;;;;4949246;28;19914;-68
2022/05/25 11:12:48;;;;;;;;;;;14.70;95.10;;;;;;4963678;28;19921;-67
2022/05/25 11:27:45;;;;;;;;;;;14.70;95.30;;;;;;4947755;28;19929;-68
2022/05/25 11:30:19;;;;;;;;;;;14.70;95.30;;;;;;4966949;28;19949;-67
2022/05/25 11:32:52;;;;;;;;;;;14.70;95.40;;;;;;4965763;28;20273;-68
2022/05/25 11:35:26;;;;;;;;;;;14.70;95.40;;;;;;4967937;28;19914;-68
2022/05/25 11:37:59;;;;;;;;;;;14.70;95.40;;;;;;4968382;28;20387;-69
2022/05/25 11:40:43;;;;;;;;;;;14.70;95.40;;;;;;4963330;28;19929;-69
2022/05/25 11:43:28;;;;;;;;;;;14.70;95.40;;;;;;4967251;28;20404;-68
2022/05/25 11:46:04;;;;;;;;;;;14.70;95.30;;;;;;4967770;28;20004;-68
2022/05/25 11:48:36;;;;;;;;;;;14.60;95.00;;;;;;4975813;28;19913;-69
2022/05/25 11:51:06;;;;;;;;;;;14.60;95.00;;;;;;4982276;28;19918;-68
2022/05/25 11:53:51;;;;;;;;;;;14.60;95.00;;;;;;4988823;28;20001;-68
2022/05/25 11:56:28;;;;;;;;;;;14.60;95.00;;;;;;4984851;28;19958;-68
2022/05/25 11:59:14;;;;;;;;;;;14.60;94.90;;;;;;4978314;28;19913;-68
2022/05/25 12:01:44;;;;;;;;;;;14.50;94.80;;;;;;4986141;28;19928;-66
2022/05/25 12:04:19;;;;;;;;;;;14.60;94.80;;;;;;4988746;28;19909;-68
2022/05/25 12:06:55;;;;;;;;;;;14.50;94.60;;;;;;4989625;28;19961;-67
2022/05/25 12:09:24;;;;;;;;;;;14.50;94.50;;;;;;4992147;28;19914;-68
2022/05/25 12:11:51;;;;;;;;;;;14.40;94.50;;;;;;4991883;28;19997;-67
2022/05/25 12:14:31;;;;;;;;;;;14.50;94.70;;;;;;4983579;28;20313;-68
2022/05/25 12:16:59;;;;;;;;;;;14.50;94.70;;;;;;4989667;28;19909;-69
2022/05/25 12:19:26;;;;;;;;;;;14.50;94.70;;;;;;4984386;28;20028;-69
2022/05/25 12:21:54;;;;;;;;;;;14.50;94.60;;;;;;4974380;28;19924;-69
2022/05/25 12:24:20;;;;;;;;;;;14.50;94.60;;;;;;4968375;28;19914;-69
2022/05/25 12:26:47;;;;;;;;;;;14.50;94.70;;;;;;4979420;28;19909;-68
2022/05/25 12:29:28;;;;;;;;;;;14.40;94.70;;;;;;4973743;28;20303;-68
2022/05/25 12:31:58;;;;;;;;;;;14.40;94.70;;;;;;4975079;28;20357;-69
2022/05/25 12:34:46;;;;;;;;;;;14.40;94.60;;;;;;4989382;28;20497;-67
2022/05/25 12:37:14;;;;;;;;;;;14.40;94.60;;;;;;4984678;28;19920;-70
2022/05/25 12:39:47;;;;;;;;;;;14.30;94.50;;;;;;4989128;28;19916;-69
2022/05/25 12:42:23;;;;;;;;;;;14.30;94.70;;;;;;4984048;28;19918;-68
2022/05/25 12:50:34;;;;;;;;;;;14.30;94.70;;;;;;4983187;28;19921;-67
2022/05/25 12:53:19;;;;;;;;;;;14.20;94.70;;;;;;4986689;28;19914;-67
2022/05/25 12:55:55;;;;;;;;;;;14.20;94.70;;;;;;4992271;28;19910;-67
2022/05/25 12:58:32;;;;;;;;;;;14.20;94.50;;;;;;4971741;28;20378;-68
2022/05/25 13:01:03;;;;;;;;;;;14.20;94.50;;;;;;4985834;28;20008;-67
2022/05/25 13:03:53;;;;;;;;;;;14.20;94.60;;;;;;4981734;28;20298;-66
2022/05/25 13:06:39;;;;;;;;;;;14.20;94.60;;;;;;4983433;28;20263;-67
2022/05/25 13:09:10;;;;;;;;;;;14.20;94.70;;;;;;4962095;28;19914;-68
2022/05/25 13:11:41;;;;;;;;;;;14.20;94.70;;;;;;4987130;28;19917;-68
2022/05/25 13:14:25;;;;;;;;;;;14.20;94.70;;;;;;4991487;28;19917;-67
2022/05/25 13:17:03;;;;;;;;;;;14.20;94.70;;;;;;4989741;28;20256;-68
2022/05/25 13:19:32;;;;;;;;;;;14.20;94.60;;;;;;4986181;28;19949;-68
2022/05/25 13:22:06;;;;;;;;;;;14.10;94.50;;;;;;4987407;28;19926;-70
2022/05/25 13:24:38;;;;;;;;;;;14.10;94.80;;;;;;4992121;28;19910;-69
2022/05/25 13:27:18;;;;;;;;;;;14.10;94.80;;;;;;5009232;28;19928;-68
2022/05/25 13:30:03;;;;;;;;;;;14.10;94.80;;;;;;5006771;28;19933;-68
2022/05/25 13:32:37;;;;;;;;;;;14.10;94.80;;;;;;4993898;28;19979;-69
2022/05/25 13:35:19;;;;;;;;;;;14.20;94.80;;;;;;5007692;28;20470;-70
2022/05/25 13:38:05;;;;;;;;;;;14.10;94.80;;;;;;4993504;28;19964;-69
2022/05/25 13:40:42;;;;;;;;;;;14.00;94.50;;;;;;4980663;28;19917;-69
2022/05/25 13:43:13;;;;;;;;;;;14.00;94.50;;;;;;5002194;28;19906;-68
2022/05/25 13:45:42;;;;;;;;;;;14.00;94.50;;;;;;4992452;28;19913;-69
2022/05/25 13:48:12;;;;;;;;;;;14.00;94.60;;;;;;5006858;28;19909;-69
2022/05/25 13:50:39;;;;;;;;;;;14.00;94.50;;;;;;4993895;28;19945;-69
2022/05/25 13:53:09;;;;;;;;;;;14.00;94.60;;;;;;4974883;28;19932;-69
2022/05/25 13:55:36;;;;;;;;;;;13.90;94.50;;;;;;4993166;28;20326;-69
2022/05/25 17:12:38;;;;;;;;;;;13.30;95.00;;;;;;4949055;28;20313;-69
2022/05/25 17:15:05;;;;;;;;;;;13.30;94.90;;;;;;4962412;28;19910;-70
2022/05/25 17:17:32;;;;;;;;;;;13.20;94.90;;;;;;4971517;28;19922;-69
2022/05/25 17:22:43;;;;;;;;;;;13.20;94.70;;;;;;4956091;29;19920;-69
2022/05/25 17:25:09;;;;;;;;;;;13.20;94.70;;;;;;4962054;28;19917;-70
2022/05/25 17:27:36;;;;;;;;;;;13.20;94.70;;;;;;4970979;28;19910;-70
2022/05/25 17:30:04;;;;;;;;;;;13.30;94.80;;;;;;4955965;29;19907;-70
2022/05/25 17:32:31;;;;;;;;;;;13.30;94.80;;;;;;4956293;29;19950;-69
2022/05/25 17:34:58;;;;;;;;;;;13.20;94.60;;;;;;4970369;28;19915;-69
2022/05/25 17:42:55;;;;;;;;;;;13.20;94.60;;;;;;4953384;28;19926;-69
2022/05/25 17:45:22;;;;;;;;;;;13.30;94.70;;;;;;4970220;28;19922;-69
2022/05/25 17:47:48;;;;;;;;;;;13.30;94.70;;;;;;4954495;28;19985;-69
2022/05/25 17:50:15;;;;;;;;;;;13.20;94.70;;;;;;4956570;28;19910;-69
2022/05/25 17:52:43;;;;;;;;;;;13.30;94.70;;;;;;4955772;28;19911;-69
2022/05/25 17:55:10;;;;;;;;;;;13.30;94.60;;;;;;4959836;28;20284;-69
2022/05/25 17:57:37;;;;;;;;;;;13.30;94.50;;;;;;4967550;28;19953;-69
2022/05/25 18:00:04;;;;;;;;;;;13.30;94.60;;;;;;4953879;28;20013;-68
2022/05/25 18:02:30;;;;;;;;;;;13.20;94.60;;;;;;4968086;28;19948;-68
2022/05/25 18:05:00;;;;;;;;;;;13.20;94.60;;;;;;4958953;28;20268;-69
2022/05/25 18:07:26;;;;;;;;;;;13.20;94.60;;;;;;4972407;28;19937;-68
2022/05/25 18:57:31;;;;;;;;;;;13.20;94.70;;;;;;4978066;28;19949;-68
2022/05/25 18:59:57;;;;;;;;;;;13.10;94.80;;;;;;4949414;28;19921;-69
2022/05/25 19:02:24;;;;;;;;;;;13.20;94.80;;;;;;4972853;28;19989;-68
2022/05/25 19:04:51;;;;;;;;;;;13.10;94.80;;;;;;4962387;28;19933;-68
2022/05/25 19:07:18;;;;;;;;;;;13.10;94.80;;;;;;4973110;28;19910;-68
2022/05/25 19:09:45;;;;;;;;;;;13.10;94.90;;;;;;4955757;28;19993;-68
2022/05/25 19:12:12;;;;;;;;;;;13.10;94.90;;;;;;4973244;28;20380;-69
2022/05/25 19:14:39;;;;;;;;;;;13.10;95.10;;;;;;4970443;28;20000;-68
2022/05/25 19:17:06;;;;;;;;;;;13.10;95.10;;;;;;4977852;28;20004;-68
2022/05/25 19:19:32;;;;;;;;;;;13.10;95.20;;;;;;4973453;28;19945;-68
2022/05/25 19:22:04;;;;;;;;;;;13.10;95.20;;;;;;4972560;28;19957;-68
2022/05/25 19:24:30;;;;;;;;;;;13.10;95.20;;;;;;4987802;28;19988;-68
2022/05/25 19:26:58;;;;;;;;;;;13.10;95.20;;;;;;4946801;28;20364;-69
2022/05/25 19:29:25;;;;;;;;;;;13.10;95.30;;;;;;4971945;28;19910;-69
2022/05/25 19:31:52;;;;;;;;;;;13.10;95.30;;;;;;4973203;28;19971;-69
2022/05/25 19:34:19;;;;;;;;;;;13.10;95.30;;;;;;4973363;28;20361;-70
2022/05/25 19:36:46;;;;;;;;;;;13.20;95.30;;;;;;4977434;28;19910;-70
2022/05/25 19:39:13;;;;;;;;;;;13.20;95.40;;;;;;4989810;28;20308;-69
2022/05/25 19:41:41;;;;;;;;;;;13.20;95.30;;;;;;4986529;28;19918;-67
2022/05/25 19:44:15;;;;;;;;;;;13.20;95.30;;;;;;4960583;28;19910;-69
2022/05/25 19:46:41;;;;;;;;;;;13.10;95.30;;;;;;4980297;28;19910;-68
2022/05/25 19:49:08;;;;;;;;;;;13.20;95.40;;;;;;4972783;28;20277;-69
2022/05/25 19:51:36;;;;;;;;;;;13.20;95.30;;;;;;4973142;28;19906;-69
2022/05/25 19:54:03;;;;;;;;;;;13.20;95.30;;;;;;4980077;28;19918;-68
